Cliffwood Lake, New Jersey
Current Conditions -  °F | °C
As of 3:53 PM on Friday 24 Oct 2014 (Local Time) from KFWN Reporting Station
Clear Clear  
Wind Chill: 68°   Ceiling: Unl
Heat Index: 68°   Visibility: 10mi
Dew Point: 42°   Wind: 10mph
Humidity: 39%   Direction: 310°NW
Pressure: 29.77"   Gusts: 22mph
Location:  41.1122°N, 74.4998°W
Report Text: KFWN 241953Z AUTO 31009G19KT 270V340 10SM CLR 20/06 A2977 RMK AO2 SLP080 T02000056
Loading
Personal Weather Stations






























Interactive Weather Map
Tropical Storm Tracking
New forecast layout! Learn more

10-Day Weather Forecast

Advertisements
Track Severe Weather on mobile